sensor_id;sensor_type;location;lat;lon;timestamp;P1;durP1;ratioP1;P2;durP2;ratioP2
47455;SDS011;33202;48.512;-2.780;2023-09-18T00:00:28;3.05;;;1.80;;
47455;SDS011;33202;48.512;-2.780;2023-09-18T00:02:55;3.65;;;1.90;;
47455;SDS011;33202;48.512;-2.780;2023-09-18T00:05:21;3.05;;;1.83;;
47455;SDS011;33202;48.512;-2.780;2023-09-18T00:07:47;3.38;;;1.70;;
47455;SDS011;33202;48.512;-2.780;2023-09-18T00:10:13;2.85;;;1.67;;
47455;SDS011;33202;48.512;-2.780;2023-09-18T00:12:39;3.03;;;1.98;;
47455;SDS011;33202;48.512;-2.780;2023-09-18T00:15:06;3.47;;;1.98;;
47455;SDS011;33202;48.512;-2.780;2023-09-18T00:17:36;6.43;;;1.73;;
47455;SDS011;33202;48.512;-2.780;2023-09-18T00:20:02;3.15;;;1.50;;
47455;SDS011;33202;48.512;-2.780;2023-09-18T00:22:31;3.20;;;1.90;;
47455;SDS011;33202;48.512;-2.780;2023-09-18T00:24:57;3.83;;;2.08;;
47455;SDS011;33202;48.512;-2.780;2023-09-18T00:27:23;2.70;;;1.80;;
47455;SDS011;33202;48.512;-2.780;2023-09-18T00:29:49;3.45;;;1.70;;
47455;SDS011;33202;48.512;-2.780;2023-09-18T00:32:15;2.78;;;1.65;;
47455;SDS011;33202;48.512;-2.780;2023-09-18T00:34:41;3.00;;;1.50;;
47455;SDS011;33202;48.512;-2.780;2023-09-18T00:37:07;4.05;;;1.63;;
47455;SDS011;33202;48.512;-2.780;2023-09-18T00:39:36;2.83;;;1.70;;
47455;SDS011;33202;48.512;-2.780;2023-09-18T00:42:02;3.85;;;1.90;;
47455;SDS011;33202;48.512;-2.780;2023-09-18T00:44:28;5.18;;;1.77;;
47455;SDS011;33202;48.512;-2.780;2023-09-18T00:46:54;3.33;;;2.00;;
47455;SDS011;33202;48.512;-2.780;2023-09-18T00:49:20;2.70;;;2.00;;
47455;SDS011;33202;48.512;-2.780;2023-09-18T00:51:47;4.50;;;2.40;;
47455;SDS011;33202;48.512;-2.780;2023-09-18T00:54:14;3.30;;;2.15;;
47455;SDS011;33202;48.512;-2.780;2023-09-18T00:56:41;5.60;;;2.70;;
47455;SDS011;33202;48.512;-2.780;2023-09-18T00:59:07;4.72;;;2.08;;
47455;SDS011;33202;48.512;-2.780;2023-09-18T01:01:34;3.83;;;2.22;;
47455;SDS011;33202;48.512;-2.780;2023-09-18T01:04:00;3.22;;;2.05;;
47455;SDS011;33202;48.512;-2.780;2023-09-18T01:06:26;4.05;;;2.15;;
47455;SDS011;33202;48.512;-2.780;2023-09-18T01:08:55;4.15;;;2.08;;
47455;SDS011;33202;48.512;-2.780;2023-09-18T01:16:32;6.32;;;3.08;;
47455;SDS011;33202;48.512;-2.780;2023-09-18T01:19:00;7.25;;;2.40;;
47455;SDS011;33202;48.512;-2.780;2023-09-18T01:21:28;4.25;;;2.10;;
47455;SDS011;33202;48.512;-2.780;2023-09-18T01:23:54;2.92;;;2.03;;
47455;SDS011;33202;48.512;-2.780;2023-09-18T01:26:20;4.25;;;2.10;;
47455;SDS011;33202;48.512;-2.780;2023-09-18T01:28:46;3.70;;;2.10;;
47455;SDS011;33202;48.512;-2.780;2023-09-18T01:31:12;3.30;;;1.85;;
47455;SDS011;33202;48.512;-2.780;2023-09-18T01:33:38;3.28;;;2.00;;
47455;SDS011;33202;48.512;-2.780;2023-09-18T01:36:06;3.90;;;2.50;;
47455;SDS011;33202;48.512;-2.780;2023-09-18T01:38:33;4.13;;;2.13;;
47455;SDS011;33202;48.512;-2.780;2023-09-18T01:40:59;4.10;;;2.40;;
47455;SDS011;33202;48.512;-2.780;2023-09-18T01:43:27;3.78;;;2.40;;
47455;SDS011;33202;48.512;-2.780;2023-09-18T01:45:53;3.40;;;2.10;;
47455;SDS011;33202;48.512;-2.780;2023-09-18T01:48:20;4.55;;;2.50;;
47455;SDS011;33202;48.512;-2.780;2023-09-18T01:50:46;3.47;;;2.40;;
47455;SDS011;33202;48.512;-2.780;2023-09-18T01:53:13;3.33;;;2.63;;
47455;SDS011;33202;48.512;-2.780;2023-09-18T01:55:39;4.93;;;2.55;;
47455;SDS011;33202;48.512;-2.780;2023-09-18T01:58:05;4.80;;;2.88;;
47455;SDS011;33202;48.512;-2.780;2023-09-18T02:00:31;5.07;;;3.20;;
47455;SDS011;33202;48.512;-2.780;2023-09-18T02:02:57;4.57;;;2.83;;
47455;SDS011;33202;48.512;-2.780;2023-09-18T02:05:23;6.28;;;3.60;;
47455;SDS011;33202;48.512;-2.780;2023-09-18T02:07:49;6.82;;;3.70;;
47455;SDS011;33202;48.512;-2.780;2023-09-18T02:10:15;6.38;;;3.83;;
47455;SDS011;33202;48.512;-2.780;2023-09-18T02:12:41;6.47;;;3.35;;
47455;SDS011;33202;48.512;-2.780;2023-09-18T02:15:07;5.70;;;3.55;;
47455;SDS011;33202;48.512;-2.780;2023-09-18T02:17:36;6.05;;;4.22;;
47455;SDS011;33202;48.512;-2.780;2023-09-18T02:20:02;6.57;;;3.55;;
47455;SDS011;33202;48.512;-2.780;2023-09-18T02:22:31;6.40;;;4.07;;
47455;SDS011;33202;48.512;-2.780;2023-09-18T02:24:57;6.20;;;3.42;;
47455;SDS011;33202;48.512;-2.780;2023-09-18T02:27:23;5.97;;;3.70;;
47455;SDS011;33202;48.512;-2.780;2023-09-18T02:29:49;5.25;;;3.60;;
47455;SDS011;33202;48.512;-2.780;2023-09-18T02:32:18;8.85;;;3.65;;
47455;SDS011;33202;48.512;-2.780;2023-09-18T02:34:44;6.05;;;3.75;;
47455;SDS011;33202;48.512;-2.780;2023-09-18T02:37:10;8.15;;;4.05;;
47455;SDS011;33202;48.512;-2.780;2023-09-18T02:39:36;7.20;;;4.10;;
47455;SDS011;33202;48.512;-2.780;2023-09-18T02:42:02;6.57;;;3.92;;
47455;SDS011;33202;48.512;-2.780;2023-09-18T02:44:29;6.38;;;3.22;;
47455;SDS011;33202;48.512;-2.780;2023-09-18T02:46:54;5.93;;;3.85;;
47455;SDS011;33202;48.512;-2.780;2023-09-18T02:49:21;5.55;;;3.80;;
47455;SDS011;33202;48.512;-2.780;2023-09-18T02:51:47;6.93;;;3.17;;
47455;SDS011;33202;48.512;-2.780;2023-09-18T02:54:14;6.03;;;3.42;;
47455;SDS011;33202;48.512;-2.780;2023-09-18T02:56:40;6.03;;;3.53;;
47455;SDS011;33202;48.512;-2.780;2023-09-18T02:59:06;4.88;;;3.55;;
47455;SDS011;33202;48.512;-2.780;2023-09-18T03:01:32;5.18;;;3.22;;
47455;SDS011;33202;48.512;-2.780;2023-09-18T03:03:58;8.77;;;3.45;;
47455;SDS011;33202;48.512;-2.780;2023-09-18T03:06:24;5.78;;;4.07;;
47455;SDS011;33202;48.512;-2.780;2023-09-18T03:08:50;5.57;;;3.50;;
47455;SDS011;33202;48.512;-2.780;2023-09-18T03:11:16;5.45;;;4.00;;
47455;SDS011;33202;48.512;-2.780;2023-09-18T03:13:46;6.53;;;3.80;;
47455;SDS011;33202;48.512;-2.780;2023-09-18T03:16:12;5.68;;;3.80;;
47455;SDS011;33202;48.512;-2.780;2023-09-18T03:18:38;6.05;;;3.95;;
47455;SDS011;33202;48.512;-2.780;2023-09-18T03:21:04;4.65;;;3.33;;
47455;SDS011;33202;48.512;-2.780;2023-09-18T03:23:31;5.47;;;3.23;;
47455;SDS011;33202;48.512;-2.780;2023-09-18T03:25:56;6.28;;;3.53;;
47455;SDS011;33202;48.512;-2.780;2023-09-18T03:28:24;5.40;;;3.70;;
47455;SDS011;33202;48.512;-2.780;2023-09-18T03:30:50;5.03;;;3.30;;
47455;SDS011;33202;48.512;-2.780;2023-09-18T03:33:16;6.30;;;3.97;;
47455;SDS011;33202;48.512;-2.780;2023-09-18T03:35:49;5.15;;;3.65;;
47455;SDS011;33202;48.512;-2.780;2023-09-18T03:38:15;5.78;;;3.55;;
47455;SDS011;33202;48.512;-2.780;2023-09-18T03:40:41;5.80;;;4.00;;
47455;SDS011;33202;48.512;-2.780;2023-09-18T03:43:09;4.50;;;3.30;;
47455;SDS011;33202;48.512;-2.780;2023-09-18T03:45:35;5.07;;;3.55;;
47455;SDS011;33202;48.512;-2.780;2023-09-18T03:48:01;5.07;;;3.40;;
47455;SDS011;33202;48.512;-2.780;2023-09-18T03:50:27;5.07;;;3.50;;
47455;SDS011;33202;48.512;-2.780;2023-09-18T03:52:53;5.57;;;3.10;;
47455;SDS011;33202;48.512;-2.780;2023-09-18T03:55:19;4.65;;;3.45;;
47455;SDS011;33202;48.512;-2.780;2023-09-18T03:57:45;5.07;;;3.63;;
47455;SDS011;33202;48.512;-2.780;2023-09-18T04:00:13;4.68;;;3.13;;
47455;SDS011;33202;48.512;-2.780;2023-09-18T04:02:40;6.03;;;3.47;;
47455;SDS011;33202;48.512;-2.780;2023-09-18T04:05:06;4.32;;;3.00;;
47455;SDS011;33202;48.512;-2.780;2023-09-18T04:07:32;4.07;;;3.20;;
47455;SDS011;33202;48.512;-2.780;2023-09-18T04:09:58;4.30;;;2.80;;
47455;SDS011;33202;48.512;-2.780;2023-09-18T04:12:25;3.92;;;2.90;;
47455;SDS011;33202;48.512;-2.780;2023-09-18T04:14:51;4.57;;;2.92;;
47455;SDS011;33202;48.512;-2.780;2023-09-18T04:17:17;5.45;;;3.20;;
47455;SDS011;33202;48.512;-2.780;2023-09-18T04:19:43;4.55;;;3.50;;
47455;SDS011;33202;48.512;-2.780;2023-09-18T04:22:09;7.80;;;3.87;;
47455;SDS011;33202;48.512;-2.780;2023-09-18T04:24:35;6.68;;;3.60;;
47455;SDS011;33202;48.512;-2.780;2023-09-18T04:27:01;4.43;;;3.22;;
47455;SDS011;33202;48.512;-2.780;2023-09-18T04:29:27;5.90;;;3.30;;
47455;SDS011;33202;48.512;-2.780;2023-09-18T04:31:53;5.75;;;3.72;;
47455;SDS011;33202;48.512;-2.780;2023-09-18T04:34:20;6.80;;;3.60;;
47455;SDS011;33202;48.512;-2.780;2023-09-18T04:36:47;7.03;;;3.72;;
47455;SDS011;33202;48.512;-2.780;2023-09-18T04:39:13;6.93;;;3.42;;
47455;SDS011;33202;48.512;-2.780;2023-09-18T04:41:39;5.05;;;3.40;;
47455;SDS011;33202;48.512;-2.780;2023-09-18T04:44:05;4.32;;;3.00;;
47455;SDS011;33202;48.512;-2.780;2023-09-18T04:46:32;4.53;;;3.10;;
47455;SDS011;33202;48.512;-2.780;2023-09-18T04:48:59;5.93;;;3.30;;
47455;SDS011;33202;48.512;-2.780;2023-09-18T04:51:25;5.05;;;3.45;;
47455;SDS011;33202;48.512;-2.780;2023-09-18T04:53:52;5.40;;;3.38;;
47455;SDS011;33202;48.512;-2.780;2023-09-18T04:56:19;8.60;;;3.90;;
47455;SDS011;33202;48.512;-2.780;2023-09-18T04:58:45;5.55;;;3.50;;
47455;SDS011;33202;48.512;-2.780;2023-09-18T05:01:11;7.07;;;3.50;;
47455;SDS011;33202;48.512;-2.780;2023-09-18T05:03:37;6.97;;;3.70;;
47455;SDS011;33202;48.512;-2.780;2023-09-18T05:06:03;7.93;;;3.72;;
47455;SDS011;33202;48.512;-2.780;2023-09-18T05:08:29;6.85;;;3.40;;
47455;SDS011;33202;48.512;-2.780;2023-09-18T05:10:56;4.97;;;3.45;;
47455;SDS011;33202;48.512;-2.780;2023-09-18T05:13:22;5.60;;;3.58;;
47455;SDS011;33202;48.512;-2.780;2023-09-18T05:15:48;5.47;;;3.25;;
47455;SDS011;33202;48.512;-2.780;2023-09-18T05:18:14;5.28;;;3.38;;
47455;SDS011;33202;48.512;-2.780;2023-09-18T05:20:41;5.82;;;3.15;;
47455;SDS011;33202;48.512;-2.780;2023-09-18T05:23:07;5.07;;;2.97;;
47455;SDS011;33202;48.512;-2.780;2023-09-18T05:25:33;8.13;;;3.60;;
47455;SDS011;33202;48.512;-2.780;2023-09-18T05:28:03;5.55;;;3.45;;
47455;SDS011;33202;48.512;-2.780;2023-09-18T05:30:31;5.65;;;3.20;;
47455;SDS011;33202;48.512;-2.780;2023-09-18T05:32:59;5.95;;;3.00;;
47455;SDS011;33202;48.512;-2.780;2023-09-18T05:35:35;5.55;;;3.05;;
47455;SDS011;33202;48.512;-2.780;2023-09-18T05:38:02;5.50;;;3.50;;
47455;SDS011;33202;48.512;-2.780;2023-09-18T05:40:28;5.85;;;3.00;;
47455;SDS011;33202;48.512;-2.780;2023-09-18T05:42:54;9.03;;;3.43;;
47455;SDS011;33202;48.512;-2.780;2023-09-18T05:45:21;7.35;;;3.17;;
47455;SDS011;33202;48.512;-2.780;2023-09-18T05:47:47;5.18;;;2.90;;
47455;SDS011;33202;48.512;-2.780;2023-09-18T05:50:13;6.23;;;3.70;;
47455;SDS011;33202;48.512;-2.780;2023-09-18T05:52:43;6.50;;;3.05;;
47455;SDS011;33202;48.512;-2.780;2023-09-18T05:55:09;5.97;;;3.42;;
47455;SDS011;33202;48.512;-2.780;2023-09-18T05:57:35;8.40;;;3.10;;
47455;SDS011;33202;48.512;-2.780;2023-09-18T06:00:02;5.53;;;2.88;;
47455;SDS011;33202;48.512;-2.780;2023-09-18T06:02:28;6.47;;;2.90;;
47455;SDS011;33202;48.512;-2.780;2023-09-18T06:04:58;6.38;;;2.80;;
47455;SDS011;33202;48.512;-2.780;2023-09-18T06:07:28;6.28;;;3.00;;
47455;SDS011;33202;48.512;-2.780;2023-09-18T06:09:54;7.80;;;3.00;;
47455;SDS011;33202;48.512;-2.780;2023-09-18T06:12:20;7.28;;;2.83;;
47455;SDS011;33202;48.512;-2.780;2023-09-18T06:14:46;6.82;;;2.85;;
47455;SDS011;33202;48.512;-2.780;2023-09-18T06:17:13;6.55;;;3.38;;
47455;SDS011;33202;48.512;-2.780;2023-09-18T06:19:39;7.32;;;3.50;;
47455;SDS011;33202;48.512;-2.780;2023-09-18T06:22:05;4.25;;;2.72;;
47455;SDS011;33202;48.512;-2.780;2023-09-18T06:24:32;5.75;;;3.30;;
47455;SDS011;33202;48.512;-2.780;2023-09-18T06:26:58;5.47;;;2.58;;
47455;SDS011;33202;48.512;-2.780;2023-09-18T06:29:24;5.50;;;2.80;;
47455;SDS011;33202;48.512;-2.780;2023-09-18T06:31:50;3.92;;;2.47;;
47455;SDS011;33202;48.512;-2.780;2023-09-18T06:34:16;4.78;;;2.60;;
47455;SDS011;33202;48.512;-2.780;2023-09-18T06:36:42;4.43;;;2.25;;
47455;SDS011;33202;48.512;-2.780;2023-09-18T06:39:08;6.45;;;2.78;;
47455;SDS011;33202;48.512;-2.780;2023-09-18T06:41:34;7.75;;;2.90;;
47455;SDS011;33202;48.512;-2.780;2023-09-18T06:44:01;6.50;;;2.60;;
47455;SDS011;33202;48.512;-2.780;2023-09-18T06:46:27;6.53;;;3.20;;
47455;SDS011;33202;48.512;-2.780;2023-09-18T06:48:54;4.93;;;3.00;;
47455;SDS011;33202;48.512;-2.780;2023-09-18T06:51:21;6.85;;;2.53;;
47455;SDS011;33202;48.512;-2.780;2023-09-18T06:53:47;4.57;;;2.30;;
47455;SDS011;33202;48.512;-2.780;2023-09-18T06:56:13;5.68;;;2.17;;
47455;SDS011;33202;48.512;-2.780;2023-09-18T06:58:39;6.47;;;2.33;;
47455;SDS011;33202;48.512;-2.780;2023-09-18T07:01:05;4.57;;;1.77;;
47455;SDS011;33202;48.512;-2.780;2023-09-18T07:03:32;3.90;;;1.80;;
47455;SDS011;33202;48.512;-2.780;2023-09-18T07:05:59;3.83;;;1.70;;
47455;SDS011;33202;48.512;-2.780;2023-09-18T07:08:25;7.13;;;2.20;;
47455;SDS011;33202;48.512;-2.780;2023-09-18T07:10:51;3.83;;;2.00;;
47455;SDS011;33202;48.512;-2.780;2023-09-18T07:13:17;4.72;;;1.85;;
47455;SDS011;33202;48.512;-2.780;2023-09-18T07:15:44;3.22;;;1.88;;
47455;SDS011;33202;48.512;-2.780;2023-09-18T07:18:10;3.90;;;1.63;;
47455;SDS011;33202;48.512;-2.780;2023-09-18T07:20:39;3.90;;;1.75;;
47455;SDS011;33202;48.512;-2.780;2023-09-18T07:23:05;3.53;;;1.55;;
47455;SDS011;33202;48.512;-2.780;2023-09-18T07:25:31;4.80;;;1.40;;
47455;SDS011;33202;48.512;-2.780;2023-09-18T07:27:57;3.90;;;1.50;;
47455;SDS011;33202;48.512;-2.780;2023-09-18T07:30:23;4.47;;;1.60;;
47455;SDS011;33202;48.512;-2.780;2023-09-18T07:32:52;3.78;;;1.38;;
47455;SDS011;33202;48.512;-2.780;2023-09-18T07:35:18;3.67;;;1.45;;
47455;SDS011;33202;48.512;-2.780;2023-09-18T07:37:44;3.83;;;1.25;;
47455;SDS011;33202;48.512;-2.780;2023-09-18T07:40:11;3.33;;;1.55;;
47455;SDS011;33202;48.512;-2.780;2023-09-18T07:42:37;3.47;;;1.20;;
47455;SDS011;33202;48.512;-2.780;2023-09-18T07:45:03;3.20;;;1.67;;
47455;SDS011;33202;48.512;-2.780;2023-09-18T07:47:29;2.92;;;1.30;;
47455;SDS011;33202;48.512;-2.780;2023-09-18T07:49:56;3.00;;;1.63;;
47455;SDS011;33202;48.512;-2.780;2023-09-18T07:52:22;2.20;;;1.33;;
47455;SDS011;33202;48.512;-2.780;2023-09-18T07:54:48;3.13;;;1.40;;
47455;SDS011;33202;48.512;-2.780;2023-09-18T07:57:15;4.55;;;1.58;;
47455;SDS011;33202;48.512;-2.780;2023-09-18T07:59:41;3.67;;;1.67;;
47455;SDS011;33202;48.512;-2.780;2023-09-18T08:02:07;5.50;;;1.27;;
47455;SDS011;33202;48.512;-2.780;2023-09-18T08:04:34;3.50;;;1.40;;
47455;SDS011;33202;48.512;-2.780;2023-09-18T08:07:00;6.65;;;1.48;;
47455;SDS011;33202;48.512;-2.780;2023-09-18T08:09:26;4.13;;;1.80;;
47455;SDS011;33202;48.512;-2.780;2023-09-18T08:11:54;6.93;;;2.22;;
47455;SDS011;33202;48.512;-2.780;2023-09-18T08:14:21;4.38;;;1.30;;
47455;SDS011;33202;48.512;-2.780;2023-09-18T08:16:47;3.53;;;1.40;;
47455;SDS011;33202;48.512;-2.780;2023-09-18T08:19:15;4.50;;;1.60;;
47455;SDS011;33202;48.512;-2.780;2023-09-18T08:21:42;4.05;;;1.60;;
47455;SDS011;33202;48.512;-2.780;2023-09-18T08:24:08;5.53;;;1.85;;
47455;SDS011;33202;48.512;-2.780;2023-09-18T08:26:34;4.35;;;1.63;;
47455;SDS011;33202;48.512;-2.780;2023-09-18T08:29:00;3.15;;;1.50;;
47455;SDS011;33202;48.512;-2.780;2023-09-18T08:31:26;3.78;;;1.63;;
47455;SDS011;33202;48.512;-2.780;2023-09-18T08:33:52;4.67;;;1.40;;
47455;SDS011;33202;48.512;-2.780;2023-09-18T08:36:18;3.95;;;1.67;;
47455;SDS011;33202;48.512;-2.780;2023-09-18T08:38:44;3.17;;;1.63;;
47455;SDS011;33202;48.512;-2.780;2023-09-18T08:41:12;5.10;;;1.88;;
47455;SDS011;33202;48.512;-2.780;2023-09-18T08:43:39;3.78;;;1.63;;
47455;SDS011;33202;48.512;-2.780;2023-09-18T08:46:06;5.22;;;1.35;;
47455;SDS011;33202;48.512;-2.780;2023-09-18T08:48:33;3.10;;;1.63;;
47455;SDS011;33202;48.512;-2.780;2023-09-18T08:51:01;3.17;;;1.70;;
47455;SDS011;33202;48.512;-2.780;2023-09-18T08:53:30;3.03;;;1.30;;
47455;SDS011;33202;48.512;-2.780;2023-09-18T08:55:56;1.98;;;1.17;;
47455;SDS011;33202;48.512;-2.780;2023-09-18T09:00:49;4.72;;;1.83;;
47455;SDS011;33202;48.512;-2.780;2023-09-18T09:03:15;2.72;;;1.50;;
47455;SDS011;33202;48.512;-2.780;2023-09-18T09:05:42;4.60;;;1.50;;
47455;SDS011;33202;48.512;-2.780;2023-09-18T09:08:08;2.20;;;1.48;;
47455;SDS011;33202;48.512;-2.780;2023-09-18T09:10:34;6.93;;;2.05;;
47455;SDS011;33202;48.512;-2.780;2023-09-18T09:13:01;5.80;;;1.80;;
47455;SDS011;33202;48.512;-2.780;2023-09-18T09:15:34;5.57;;;1.85;;
47455;SDS011;33202;48.512;-2.780;2023-09-18T09:18:12;5.28;;;2.13;;
47455;SDS011;33202;48.512;-2.780;2023-09-18T09:20:40;4.20;;;1.85;;
47455;SDS011;33202;48.512;-2.780;2023-09-18T09:23:07;5.73;;;1.87;;
47455;SDS011;33202;48.512;-2.780;2023-09-18T09:25:33;4.85;;;1.85;;
47455;SDS011;33202;48.512;-2.780;2023-09-18T09:28:00;5.15;;;1.80;;
47455;SDS011;33202;48.512;-2.780;2023-09-18T09:30:28;4.88;;;1.98;;
47455;SDS011;33202;48.512;-2.780;2023-09-18T09:32:55;9.30;;;2.08;;
47455;SDS011;33202;48.512;-2.780;2023-09-18T09:35:28;4.00;;;1.70;;
47455;SDS011;33202;48.512;-2.780;2023-09-18T09:38:01;4.00;;;1.83;;
47455;SDS011;33202;48.512;-2.780;2023-09-18T09:40:32;6.07;;;2.08;;
47455;SDS011;33202;48.512;-2.780;2023-09-18T09:43:00;6.60;;;1.88;;
47455;SDS011;33202;48.512;-2.780;2023-09-18T09:45:30;5.90;;;1.73;;
47455;SDS011;33202;48.512;-2.780;2023-09-18T09:48:00;3.38;;;1.77;;
47455;SDS011;33202;48.512;-2.780;2023-09-18T09:50:26;4.68;;;1.80;;
47455;SDS011;33202;48.512;-2.780;2023-09-18T09:52:53;4.15;;;1.60;;
47455;SDS011;33202;48.512;-2.780;2023-09-18T09:55:20;5.10;;;2.10;;
47455;SDS011;33202;48.512;-2.780;2023-09-18T09:57:48;4.20;;;1.60;;
47455;SDS011;33202;48.512;-2.780;2023-09-18T10:00:14;3.38;;;1.83;;
47455;SDS011;33202;48.512;-2.780;2023-09-18T10:02:53;6.00;;;1.83;;
47455;SDS011;33202;48.512;-2.780;2023-09-18T10:05:22;6.03;;;2.03;;
47455;SDS011;33202;48.512;-2.780;2023-09-18T10:07:50;6.60;;;2.03;;
47455;SDS011;33202;48.512;-2.780;2023-09-18T10:12:43;6.22;;;1.67;;
47455;SDS011;33202;48.512;-2.780;2023-09-18T10:15:09;4.13;;;1.70;;
47455;SDS011;33202;48.512;-2.780;2023-09-18T10:17:37;6.65;;;1.92;;
47455;SDS011;33202;48.512;-2.780;2023-09-18T10:20:09;8.32;;;1.80;;
47455;SDS011;33202;48.512;-2.780;2023-09-18T10:22:46;5.35;;;1.90;;
47455;SDS011;33202;48.512;-2.780;2023-09-18T10:25:18;4.88;;;2.05;;
47455;SDS011;33202;48.512;-2.780;2023-09-18T10:27:46;10.95;;;2.58;;
47455;SDS011;33202;48.512;-2.780;2023-09-18T10:30:23;6.55;;;1.55;;
47455;SDS011;33202;48.512;-2.780;2023-09-18T10:32:50;5.57;;;1.80;;
47455;SDS011;33202;48.512;-2.780;2023-09-18T10:35:16;5.88;;;1.75;;
47455;SDS011;33202;48.512;-2.780;2023-09-18T10:37:45;3.17;;;1.70;;
47455;SDS011;33202;48.512;-2.780;2023-09-18T10:42:41;7.45;;;1.60;;
47455;SDS011;33202;48.512;-2.780;2023-09-18T10:45:10;5.13;;;1.50;;
47455;SDS011;33202;48.512;-2.780;2023-09-18T10:47:39;4.40;;;1.52;;
47455;SDS011;33202;48.512;-2.780;2023-09-18T10:50:06;4.28;;;1.65;;
47455;SDS011;33202;48.512;-2.780;2023-09-18T10:52:33;7.47;;;1.48;;
47455;SDS011;33202;48.512;-2.780;2023-09-18T10:55:00;7.63;;;2.05;;
47455;SDS011;33202;48.512;-2.780;2023-09-18T10:57:33;4.90;;;1.55;;
47455;SDS011;33202;48.512;-2.780;2023-09-18T11:00:00;5.10;;;1.85;;
47455;SDS011;33202;48.512;-2.780;2023-09-18T11:02:39;4.13;;;1.75;;
47455;SDS011;33202;48.512;-2.780;2023-09-18T11:05:05;6.38;;;1.95;;
47455;SDS011;33202;48.512;-2.780;2023-09-18T11:07:32;5.07;;;1.70;;
47455;SDS011;33202;48.512;-2.780;2023-09-18T11:09:58;7.78;;;1.52;;
47455;SDS011;33202;48.512;-2.780;2023-09-18T11:12:42;6.15;;;1.75;;
47455;SDS011;33202;48.512;-2.780;2023-09-18T11:15:08;8.93;;;2.00;;
47455;SDS011;33202;48.512;-2.780;2023-09-18T11:23:10;8.50;;;1.60;;
47455;SDS011;33202;48.512;-2.780;2023-09-18T11:25:35;16.30;;;2.28;;
47455;SDS011;33202;48.512;-2.780;2023-09-18T11:28:12;6.67;;;1.87;;
47455;SDS011;33202;48.512;-2.780;2023-09-18T11:30:49;8.30;;;2.15;;
47455;SDS011;33202;48.512;-2.780;2023-09-18T11:33:15;5.97;;;1.67;;
47455;SDS011;33202;48.512;-2.780;2023-09-18T11:35:55;6.72;;;1.50;;
47455;SDS011;33202;48.512;-2.780;2023-09-18T11:38:21;7.90;;;2.22;;
47455;SDS011;33202;48.512;-2.780;2023-09-18T11:40:48;7.80;;;1.70;;
47455;SDS011;33202;48.512;-2.780;2023-09-18T11:46:00;4.63;;;1.58;;
47455;SDS011;33202;48.512;-2.780;2023-09-18T11:48:30;4.90;;;1.55;;
47455;SDS011;33202;48.512;-2.780;2023-09-18T11:50:59;7.22;;;1.75;;
47455;SDS011;33202;48.512;-2.780;2023-09-18T11:53:28;5.95;;;1.63;;
47455;SDS011;33202;48.512;-2.780;2023-09-18T11:55:54;8.70;;;2.20;;
47455;SDS011;33202;48.512;-2.780;2023-09-18T11:58:21;9.98;;;1.83;;
47455;SDS011;33202;48.512;-2.780;2023-09-18T12:00:49;7.63;;;1.95;;
47455;SDS011;33202;48.512;-2.780;2023-09-18T12:03:16;10.52;;;2.30;;
47455;SDS011;33202;48.512;-2.780;2023-09-18T12:05:43;8.57;;;1.85;;
47455;SDS011;33202;48.512;-2.780;2023-09-18T12:08:10;5.63;;;1.77;;
47455;SDS011;33202;48.512;-2.780;2023-09-18T12:10:37;9.05;;;2.17;;
47455;SDS011;33202;48.512;-2.780;2023-09-18T12:13:06;8.75;;;1.77;;
47455;SDS011;33202;48.512;-2.780;2023-09-18T12:15:33;9.77;;;2.17;;
47455;SDS011;33202;48.512;-2.780;2023-09-18T12:18:06;8.32;;;2.03;;
47455;SDS011;33202;48.512;-2.780;2023-09-18T12:20:32;11.93;;;2.10;;
47455;SDS011;33202;48.512;-2.780;2023-09-18T12:23:02;12.60;;;2.35;;
47455;SDS011;33202;48.512;-2.780;2023-09-18T12:25:28;5.95;;;1.70;;
47455;SDS011;33202;48.512;-2.780;2023-09-18T12:27:54;8.80;;;1.90;;
47455;SDS011;33202;48.512;-2.780;2023-09-18T12:30:21;6.43;;;1.80;;
47455;SDS011;33202;48.512;-2.780;2023-09-18T12:32:47;7.00;;;1.60;;
47455;SDS011;33202;48.512;-2.780;2023-09-18T12:35:14;9.38;;;1.75;;
47455;SDS011;33202;48.512;-2.780;2023-09-18T12:37:40;10.25;;;2.17;;
47455;SDS011;33202;48.512;-2.780;2023-09-18T12:40:06;6.93;;;1.50;;
47455;SDS011;33202;48.512;-2.780;2023-09-18T12:42:38;7.50;;;1.92;;
47455;SDS011;33202;48.512;-2.780;2023-09-18T12:45:08;11.57;;;2.40;;
47455;SDS011;33202;48.512;-2.780;2023-09-18T12:47:35;12.57;;;2.40;;
47455;SDS011;33202;48.512;-2.780;2023-09-18T12:50:04;12.65;;;2.78;;
47455;SDS011;33202;48.512;-2.780;2023-09-18T12:52:31;11.68;;;2.60;;
47455;SDS011;33202;48.512;-2.780;2023-09-18T12:54:58;11.27;;;2.42;;
47455;SDS011;33202;48.512;-2.780;2023-09-18T12:57:26;8.25;;;2.08;;
47455;SDS011;33202;48.512;-2.780;2023-09-18T13:02:20;12.60;;;2.47;;
47455;SDS011;33202;48.512;-2.780;2023-09-18T13:04:52;8.43;;;2.05;;
47455;SDS011;33202;48.512;-2.780;2023-09-18T13:07:18;10.48;;;2.17;;
47455;SDS011;33202;48.512;-2.780;2023-09-18T13:10:03;10.35;;;2.13;;
47455;SDS011;33202;48.512;-2.780;2023-09-18T13:15:06;7.30;;;1.67;;
47455;SDS011;33202;48.512;-2.780;2023-09-18T13:17:42;7.88;;;1.85;;
47455;SDS011;33202;48.512;-2.780;2023-09-18T13:20:13;6.85;;;1.67;;
47455;SDS011;33202;48.512;-2.780;2023-09-18T13:22:40;10.18;;;2.47;;
47455;SDS011;33202;48.512;-2.780;2023-09-18T13:27:33;8.48;;;2.28;;
47455;SDS011;33202;48.512;-2.780;2023-09-18T13:29:59;12.13;;;2.03;;
47455;SDS011;33202;48.512;-2.780;2023-09-18T13:32:32;9.93;;;1.65;;
47455;SDS011;33202;48.512;-2.780;2023-09-18T13:34:58;8.52;;;1.88;;
47455;SDS011;33202;48.512;-2.780;2023-09-18T13:37:24;7.32;;;2.00;;
47455;SDS011;33202;48.512;-2.780;2023-09-18T13:39:51;11.13;;;2.95;;
47455;SDS011;33202;48.512;-2.780;2023-09-18T13:42:17;8.68;;;1.70;;
47455;SDS011;33202;48.512;-2.780;2023-09-18T13:44:46;8.32;;;1.83;;
47455;SDS011;33202;48.512;-2.780;2023-09-18T13:47:12;9.15;;;2.63;;
47455;SDS011;33202;48.512;-2.780;2023-09-18T13:49:38;10.83;;;2.17;;
47455;SDS011;33202;48.512;-2.780;2023-09-18T13:52:04;7.65;;;2.35;;
47455;SDS011;33202;48.512;-2.780;2023-09-18T13:54:30;6.93;;;1.77;;
47455;SDS011;33202;48.512;-2.780;2023-09-18T13:56:56;9.32;;;1.75;;
47455;SDS011;33202;48.512;-2.780;2023-09-18T13:59:22;6.55;;;1.98;;
47455;SDS011;33202;48.512;-2.780;2023-09-18T14:01:49;5.30;;;1.40;;
47455;SDS011;33202;48.512;-2.780;2023-09-18T14:04:17;9.00;;;1.58;;
47455;SDS011;33202;48.512;-2.780;2023-09-18T14:09:10;7.45;;;1.70;;
47455;SDS011;33202;48.512;-2.780;2023-09-18T14:11:36;7.38;;;1.63;;
47455;SDS011;33202;48.512;-2.780;2023-09-18T14:14:03;8.98;;;2.22;;
47455;SDS011;33202;48.512;-2.780;2023-09-18T14:16:29;10.55;;;1.77;;
47455;SDS011;33202;48.512;-2.780;2023-09-18T14:18:58;10.38;;;2.28;;
47455;SDS011;33202;48.512;-2.780;2023-09-18T14:21:24;8.77;;;1.80;;
47455;SDS011;33202;48.512;-2.780;2023-09-18T14:23:58;7.63;;;1.70;;
47455;SDS011;33202;48.512;-2.780;2023-09-18T14:26:24;8.68;;;1.73;;
47455;SDS011;33202;48.512;-2.780;2023-09-18T14:28:50;8.98;;;2.00;;
47455;SDS011;33202;48.512;-2.780;2023-09-18T14:31:16;6.07;;;1.80;;
47455;SDS011;33202;48.512;-2.780;2023-09-18T14:33:44;8.20;;;2.10;;
47455;SDS011;33202;48.512;-2.780;2023-09-18T14:38:36;5.70;;;1.42;;
47455;SDS011;33202;48.512;-2.780;2023-09-18T14:41:01;6.25;;;1.40;;
47455;SDS011;33202;48.512;-2.780;2023-09-18T14:43:28;6.95;;;1.48;;
47455;SDS011;33202;48.512;-2.780;2023-09-18T14:45:57;7.85;;;1.58;;
47455;SDS011;33202;48.512;-2.780;2023-09-18T14:48:27;6.90;;;1.58;;
47455;SDS011;33202;48.512;-2.780;2023-09-18T14:53:20;5.43;;;1.63;;
47455;SDS011;33202;48.512;-2.780;2023-09-18T14:55:46;6.63;;;1.93;;
47455;SDS011;33202;48.512;-2.780;2023-09-18T14:58:12;7.22;;;1.85;;
47455;SDS011;33202;48.512;-2.780;2023-09-18T15:00:39;7.80;;;1.67;;
47455;SDS011;33202;48.512;-2.780;2023-09-18T15:03:05;5.55;;;1.45;;
47455;SDS011;33202;48.512;-2.780;2023-09-18T15:05:31;7.45;;;1.52;;
47455;SDS011;33202;48.512;-2.780;2023-09-18T15:07:58;8.65;;;1.52;;